createdAt,value
2023-02-15T00:00:13.656Z,9.60
2023-02-15T00:03:18.963Z,9.95
2023-02-15T00:06:24.157Z,9.77
2023-02-15T00:09:27.487Z,9.50
2023-02-15T00:12:30.773Z,9.30
2023-02-15T00:15:34.128Z,8.85
2023-02-15T00:18:37.544Z,9.00
2023-02-15T00:21:42.481Z,8.88
2023-02-15T00:24:45.799Z,8.25
2023-02-15T00:27:49.112Z,9.18
2023-02-15T00:30:52.545Z,9.25
2023-02-15T00:33:56.029Z,8.10
2023-02-15T00:37:00.778Z,8.25
2023-02-15T00:40:04.681Z,9.23
2023-02-15T00:43:08.554Z,10.07
2023-02-15T00:46:12.087Z,9.25
2023-02-15T00:49:16.454Z,8.95
2023-02-15T00:52:21.166Z,8.90
2023-02-15T00:55:24.556Z,9.00
2023-02-15T00:58:28.115Z,9.02
2023-02-15T01:01:31.553Z,9.18
2023-02-15T01:04:35.009Z,9.10
2023-02-15T01:07:39.770Z,9.15
2023-02-15T01:10:44.930Z,8.52
2023-02-15T01:13:48.426Z,9.23
2023-02-15T01:16:51.844Z,9.18
2023-02-15T01:19:55.235Z,8.45
2023-02-15T01:23:00.206Z,10.18
2023-02-15T01:26:04.369Z,9.02
2023-02-15T01:29:08.633Z,9.50
2023-02-15T01:32:12.243Z,8.30
2023-02-15T01:35:15.876Z,9.05
2023-02-15T01:38:21.189Z,7.70
2023-02-15T01:41:27.545Z,8.45
2023-02-15T01:44:48.997Z,9.15
2023-02-15T01:47:55.504Z,8.27
2023-02-15T01:51:03.549Z,8.18
2023-02-15T01:54:12.345Z,8.82
2023-02-15T01:57:20.116Z,9.23
2023-02-15T02:00:28.180Z,8.60
2023-02-15T02:03:35.754Z,7.10
2023-02-15T02:06:41.873Z,7.43
2023-02-15T02:09:46.981Z,7.78
2023-02-15T02:12:52.640Z,6.82
2023-02-15T02:16:01.502Z,7.63
2023-02-15T02:19:20.585Z,8.27
2023-02-15T02:22:31.721Z,7.35
2023-02-15T02:25:49.988Z,7.05
2023-02-15T02:29:08.118Z,6.03
2023-02-15T02:32:32.598Z,6.82
2023-02-15T02:35:41.342Z,6.82
2023-02-15T02:38:49.787Z,6.43
2023-02-15T02:41:56.650Z,6.10
2023-02-15T02:45:03.320Z,6.13
2023-02-15T02:48:09.733Z,5.72
2023-02-15T02:51:15.016Z,5.40
2023-02-15T02:54:19.269Z,6.40
2023-02-15T02:57:26.802Z,6.57
2023-02-15T03:00:34.203Z,6.25
2023-02-15T03:03:39.348Z,5.43
2023-02-15T03:06:49.554Z,6.20
2023-02-15T03:09:55.018Z,5.63
2023-02-15T03:12:58.581Z,5.68
2023-02-15T03:16:23.991Z,6.45
2023-02-15T03:19:29.173Z,5.95
2023-02-15T03:22:37.798Z,6.60
2023-02-15T03:25:45.661Z,6.25
2023-02-15T03:28:50.491Z,6.10
2023-02-15T03:31:57.062Z,6.18
2023-02-15T03:35:00.772Z,6.30
2023-02-15T03:38:09.784Z,6.57
2023-02-15T03:41:15.191Z,6.78
2023-02-15T03:44:21.846Z,6.05
2023-02-15T03:47:27.632Z,6.72
2023-02-15T03:50:50.238Z,6.68
2023-02-15T03:53:56.826Z,6.25
2023-02-15T03:57:14.363Z,7.03
2023-02-15T04:00:37.398Z,7.07
2023-02-15T04:03:43.297Z,6.95
2023-02-15T04:06:46.767Z,7.30
2023-02-15T04:10:11.216Z,6.45
2023-02-15T04:13:14.786Z,6.63
2023-02-15T04:16:17.192Z,5.97
2023-02-15T04:19:38.764Z,5.55
2023-02-15T04:22:59.959Z,6.10
2023-02-15T04:26:06.719Z,6.38
2023-02-15T04:29:10.064Z,5.75
2023-02-15T04:32:13.710Z,6.05
2023-02-15T04:35:17.539Z,5.90
2023-02-15T04:38:21.141Z,5.35
2023-02-15T04:41:25.904Z,6.45
2023-02-15T04:44:29.653Z,7.00
2023-02-15T04:47:37.265Z,6.53
2023-02-15T04:50:40.729Z,6.93
2023-02-15T04:53:44.083Z,6.93
2023-02-15T04:56:49.460Z,6.93
2023-02-15T04:59:53.548Z,6.07
2023-02-15T05:02:56.948Z,7.43
2023-02-15T05:06:00.953Z,8.20
2023-02-15T05:09:04.545Z,7.50
2023-02-15T05:12:09.595Z,8.00
2023-02-15T05:15:13.195Z,7.50
2023-02-15T05:18:16.629Z,7.63
2023-02-15T05:21:20.040Z,7.15
2023-02-15T05:24:41.254Z,7.05
2023-02-15T05:28:05.247Z,7.28
2023-02-15T05:31:10.212Z,7.45
2023-02-15T05:34:13.974Z,7.53
2023-02-15T05:37:17.325Z,6.35
2023-02-15T05:40:20.893Z,7.32
2023-02-15T05:43:25.792Z,8.02
2023-02-15T05:46:29.413Z,6.75
2023-02-15T05:49:32.902Z,7.43
2023-02-15T05:52:36.346Z,7.65
2023-02-15T05:55:40.564Z,7.85
2023-02-15T05:58:45.357Z,7.32
2023-02-15T06:01:48.684Z,7.50
2023-02-15T06:04:52.120Z,6.85
2023-02-15T06:07:55.440Z,6.40
2023-02-15T06:10:58.861Z,7.35
2023-02-15T06:14:03.651Z,7.72
2023-02-15T06:17:07.421Z,7.18
2023-02-15T06:20:11.273Z,7.25
2023-02-15T06:23:14.809Z,8.48
2023-02-15T06:26:18.295Z,7.43
2023-02-15T06:29:23.206Z,7.07
2023-02-15T06:32:27.513Z,7.38
2023-02-15T06:35:31.049Z,7.70
2023-02-15T06:38:34.335Z,7.28
2023-02-15T06:41:37.712Z,7.72
2023-02-15T06:44:42.547Z,7.30
2023-02-15T06:47:45.912Z,8.70
2023-02-15T06:50:50.069Z,7.63
2023-02-15T06:53:54.330Z,6.53
2023-02-15T06:56:57.774Z,7.38
2023-02-15T07:00:02.660Z,7.05
2023-02-15T07:03:06.031Z,7.90
2023-02-15T07:06:11.595Z,6.78
2023-02-15T07:09:14.962Z,6.22
2023-02-15T07:12:40.720Z,6.15
2023-02-15T07:15:53.147Z,6.63
2023-02-15T07:19:03.225Z,6.82
2023-02-15T07:22:06.761Z,6.35
2023-02-15T07:25:21.001Z,5.80
2023-02-15T07:29:00.537Z,6.15
2023-02-15T07:32:16.561Z,6.13
2023-02-15T07:35:29.879Z,6.10
2023-02-15T07:38:50.068Z,6.20
2023-02-15T07:41:58.711Z,6.07
2023-02-15T07:45:22.926Z,5.40
2023-02-15T07:48:28.053Z,6.15
2023-02-15T07:51:41.853Z,7.20
2023-02-15T07:54:55.427Z,5.90
2023-02-15T07:58:00.692Z,6.28
2023-02-15T08:01:39.525Z,5.78
2023-02-15T08:05:01.667Z,6.32
2023-02-15T08:08:42.154Z,5.80
2023-02-15T08:11:55.563Z,6.47
2023-02-15T08:15:06.061Z,5.82
2023-02-15T08:18:20.247Z,6.13
2023-02-15T08:21:46.645Z,6.70
2023-02-15T08:24:58.637Z,6.22
2023-02-15T08:28:08.202Z,5.45
2023-02-15T08:35:01.931Z,6.80
2023-02-15T08:38:12.150Z,6.35
2023-02-15T08:41:26.909Z,5.72
2023-02-15T08:44:34.356Z,7.32
2023-02-15T08:47:39.235Z,6.63
2023-02-15T08:50:46.888Z,7.13
2023-02-15T08:54:01.188Z,6.15
2023-02-15T08:57:07.955Z,5.88
2023-02-15T09:00:12.998Z,6.05
2023-02-15T09:03:20.676Z,6.03
2023-02-15T09:06:30.532Z,5.97
2023-02-15T09:09:34.856Z,5.63
2023-02-15T09:12:40.073Z,6.65
2023-02-15T09:15:46.862Z,6.28
2023-02-15T09:18:58.204Z,6.05
2023-02-15T09:22:04.386Z,6.43
2023-02-15T09:25:12.993Z,6.65
2023-02-15T09:28:22.117Z,6.35
2023-02-15T09:31:29.408Z,6.95
2023-02-15T09:34:35.553Z,6.97
2023-02-15T09:37:39.260Z,6.60
2023-02-15T09:41:04.413Z,7.10
2023-02-15T09:44:21.026Z,7.60
2023-02-15T09:47:38.161Z,7.82
2023-02-15T09:50:48.196Z,8.05
2023-02-15T09:54:01.889Z,7.70
2023-02-15T10:00:48.484Z,9.18
2023-02-15T10:03:59.243Z,7.88
2023-02-15T10:07:08.600Z,7.28
2023-02-15T10:10:18.849Z,6.85
2023-02-15T10:13:37.254Z,8.25
2023-02-15T10:16:55.037Z,8.98
2023-02-15T10:20:06.883Z,8.50
2023-02-15T10:23:33.759Z,8.70
2023-02-15T10:27:20.632Z,8.70
2023-02-15T10:30:31.353Z,10.00
2023-02-15T10:34:04.436Z,8.55
2023-02-15T10:37:37.723Z,10.48
2023-02-15T10:40:57.705Z,10.50
2023-02-15T10:44:31.727Z,10.95
2023-02-15T10:47:47.830Z,10.07
2023-02-15T10:51:25.603Z,9.32
2023-02-15T10:54:37.009Z,9.18
2023-02-15T10:58:15.448Z,9.25
2023-02-15T11:01:35.705Z,9.15
2023-02-15T11:08:55.623Z,7.72
2023-02-15T11:12:54.586Z,7.95
2023-02-15T11:16:38.993Z,7.95
2023-02-15T11:19:44.716Z,9.23
2023-02-15T11:31:01.681Z,7.38
2023-02-15T11:34:07.618Z,8.63
2023-02-15T11:37:13.234Z,8.38
2023-02-15T11:40:23.116Z,8.98
2023-02-15T11:43:30.122Z,9.50
2023-02-15T11:46:35.058Z,9.93
2023-02-15T11:49:38.580Z,10.48
2023-02-15T11:52:48.159Z,10.07
2023-02-15T11:55:54.908Z,10.27
2023-02-15T11:59:00.095Z,9.88
2023-02-15T12:02:05.086Z,10.20
2023-02-15T12:05:11.967Z,9.23
2023-02-15T12:08:19.376Z,9.25
2023-02-15T12:11:25.113Z,9.02
2023-02-15T12:14:28.995Z,8.88
2023-02-15T12:17:36.013Z,8.93
2023-02-15T12:20:40.318Z,8.77
2023-02-15T12:23:46.368Z,10.32
2023-02-15T12:26:59.602Z,8.75
2023-02-15T12:30:04.773Z,8.63
2023-02-15T12:33:16.640Z,10.52
2023-02-15T12:36:21.417Z,10.23
2023-02-15T12:39:27.180Z,10.48
2023-02-15T12:42:43.049Z,8.57
2023-02-15T12:45:46.470Z,10.65
2023-02-15T12:49:08.723Z,9.60
2023-02-15T12:52:26.215Z,10.80
2023-02-15T12:55:31.816Z,10.48
2023-02-15T12:58:35.687Z,10.35
2023-02-15T13:01:39.317Z,9.60
2023-02-15T13:04:50.331Z,10.07
2023-02-15T13:07:56.915Z,9.65
2023-02-15T13:11:02.590Z,10.85
2023-02-15T13:14:18.382Z,10.48
2023-02-15T13:17:25.581Z,11.77
2023-02-15T13:20:30.606Z,11.05
2023-02-15T13:23:36.506Z,9.98
2023-02-15T13:26:45.505Z,10.45
2023-02-15T13:29:51.102Z,10.82
2023-02-15T13:32:56.785Z,12.00
2023-02-15T13:36:06.730Z,11.23
2023-02-15T13:39:16.656Z,11.75
2023-02-15T13:42:23.107Z,12.50
2023-02-15T13:45:35.749Z,11.93
2023-02-15T13:48:48.735Z,12.50
2023-02-15T13:52:01.363Z,11.60
2023-02-15T13:55:25.534Z,10.40
2023-02-15T13:58:36.513Z,11.05
2023-02-15T14:01:42.996Z,11.10
2023-02-15T14:04:55.881Z,12.77
2023-02-15T14:08:08.431Z,11.40
2023-02-15T14:11:18.753Z,11.93
2023-02-15T14:14:40.917Z,11.15
2023-02-15T14:17:50.798Z,11.57
2023-02-15T14:21:02.183Z,11.95
2023-02-15T14:24:15.660Z,12.27
2023-02-15T14:27:24.740Z,12.20
2023-02-15T14:30:29.933Z,12.10
2023-02-15T14:33:36.053Z,11.27
2023-02-15T14:36:40.349Z,11.68
2023-02-15T14:40:05.419Z,11.23
2023-02-15T14:43:12.001Z,11.07
2023-02-15T14:46:21.011Z,11.48
2023-02-15T14:49:28.807Z,10.10
2023-02-15T14:52:33.068Z,11.20
2023-02-15T14:55:40.986Z,10.30
2023-02-15T14:58:57.344Z,10.40
2023-02-15T15:02:01.536Z,10.20
2023-02-15T15:05:09.376Z,11.18
2023-02-15T15:08:23.959Z,9.23
2023-02-15T15:11:44.168Z,9.18
2023-02-15T15:14:47.991Z,10.05
2023-02-15T15:17:55.790Z,9.30
2023-02-15T15:20:59.185Z,9.82
2023-02-15T15:24:02.525Z,10.10
2023-02-15T15:27:24.495Z,8.32
2023-02-15T15:31:01.656Z,7.63
2023-02-15T15:34:24.675Z,8.02
2023-02-15T15:37:52.099Z,8.98
2023-02-15T15:41:11.889Z,9.20
2023-02-15T15:44:28.379Z,7.72
2023-02-15T15:47:37.680Z,8.32
2023-02-15T15:50:43.721Z,7.93
2023-02-15T15:53:49.869Z,9.48
2023-02-15T15:56:55.401Z,8.55
2023-02-15T16:00:00.466Z,8.57
2023-02-15T16:03:04.244Z,8.45
2023-02-15T16:06:13.840Z,8.52
2023-02-15T16:09:20.165Z,9.05
2023-02-15T16:12:24.393Z,8.77
2023-02-15T16:15:31.416Z,8.30
2023-02-15T16:18:37.253Z,8.88
2023-02-15T16:21:42.052Z,6.80
2023-02-15T16:25:04.374Z,7.97
2023-02-15T16:28:13.369Z,8.07
2023-02-15T16:31:18.086Z,8.05
2023-02-15T16:34:21.713Z,7.88
2023-02-15T16:37:28.275Z,7.57
2023-02-15T16:40:40.145Z,7.72
2023-02-15T16:43:44.821Z,8.55
2023-02-15T16:46:50.121Z,8.13
2023-02-15T16:49:56.048Z,8.40
2023-02-15T16:53:01.130Z,9.20
2023-02-15T16:56:06.297Z,8.23
2023-02-15T16:59:20.214Z,6.28
2023-02-15T17:02:49.402Z,7.07
2023-02-15T17:05:51.203Z,7.60
2023-02-15T17:09:05.145Z,7.40
2023-02-15T17:12:11.497Z,6.55
2023-02-15T17:15:28.162Z,7.13
2023-02-15T17:18:32.824Z,6.75
2023-02-15T17:21:40.096Z,7.28
2023-02-15T17:24:45.933Z,6.32
2023-02-15T17:27:53.675Z,7.50
2023-02-15T17:30:57.995Z,7.45
2023-02-15T17:34:02.381Z,7.80
2023-02-15T17:37:05.805Z,7.57
2023-02-15T17:40:19.505Z,8.10
2023-02-15T17:43:22.992Z,8.48
2023-02-15T17:46:26.901Z,8.25
2023-02-15T17:49:34.789Z,9.07
2023-02-15T17:52:38.844Z,7.88
2023-02-15T17:55:43.828Z,8.60
2023-02-15T17:58:47.515Z,8.05
2023-02-15T18:02:09.450Z,8.60
2023-02-15T18:05:32.529Z,8.55
2023-02-15T18:08:53.782Z,8.45
2023-02-15T18:11:58.651Z,8.88
2023-02-15T18:15:02.650Z,8.32
2023-02-15T18:18:06.293Z,8.40
2023-02-15T18:21:12.142Z,8.90
2023-02-15T18:24:20.060Z,9.30
2023-02-15T18:27:25.031Z,10.43
2023-02-15T18:30:29.191Z,10.60
2023-02-15T18:33:36.008Z,10.63
2023-02-15T18:36:46.153Z,9.75
2023-02-15T18:39:54.002Z,10.18
2023-02-15T18:42:58.948Z,11.10
2023-02-15T18:46:02.402Z,10.55
2023-02-15T18:49:05.871Z,9.50
2023-02-15T18:52:15.964Z,9.32
2023-02-15T18:55:20.726Z,8.20
2023-02-15T18:58:27.236Z,9.30
2023-02-15T19:01:31.155Z,9.52
2023-02-15T19:04:34.735Z,7.65
2023-02-15T19:07:38.401Z,8.38
2023-02-15T19:10:41.665Z,8.50
2023-02-15T19:13:47.321Z,7.35
2023-02-15T19:16:50.797Z,7.10
2023-02-15T19:19:54.563Z,6.82
2023-02-15T19:22:58.169Z,5.47
2023-02-15T19:26:02.340Z,5.20
2023-02-15T19:29:07.118Z,5.78
2023-02-15T19:32:11.813Z,5.25
2023-02-15T19:35:15.922Z,5.90
2023-02-15T19:38:21.025Z,5.90
2023-02-15T19:41:26.605Z,5.78
2023-02-15T19:44:31.401Z,5.60
2023-02-15T19:47:34.763Z,7.72
2023-02-15T19:50:38.092Z,6.63
2023-02-15T19:53:41.867Z,6.45
2023-02-15T19:56:45.212Z,5.90
2023-02-15T19:59:50.318Z,5.40
2023-02-15T20:02:54.095Z,6.45
2023-02-15T20:05:57.393Z,7.32
2023-02-15T20:09:00.878Z,7.20
2023-02-15T20:12:04.223Z,6.82
2023-02-15T20:15:18.179Z,5.90
2023-02-15T20:18:22.742Z,6.80
2023-02-15T20:21:26.280Z,5.60
2023-02-15T20:24:30.408Z,6.50
2023-02-15T20:27:34.980Z,5.55
2023-02-15T20:30:39.550Z,5.55
2023-02-15T20:33:42.882Z,6.65
2023-02-15T20:36:46.170Z,6.97
2023-02-15T20:39:49.637Z,6.88
2023-02-15T20:42:53.177Z,6.38
2023-02-15T20:45:58.649Z,6.82
2023-02-15T20:49:01.873Z,6.40
2023-02-15T20:52:06.628Z,6.72
2023-02-15T20:55:13.789Z,7.35
2023-02-15T20:58:21.527Z,7.22
2023-02-15T21:01:26.267Z,8.10
2023-02-15T21:04:31.412Z,8.23
2023-02-15T21:07:34.677Z,8.18
2023-02-15T21:10:38.020Z,7.78
2023-02-15T21:13:41.626Z,7.88
2023-02-15T21:16:47.724Z,7.35
2023-02-15T21:19:51.206Z,7.13
2023-02-15T21:22:54.948Z,7.28
2023-02-15T21:25:58.755Z,7.30
2023-02-15T21:29:03.777Z,6.55
2023-02-15T21:32:08.872Z,6.75
2023-02-15T21:35:13.631Z,7.32
2023-02-15T21:38:17.987Z,7.15
2023-02-15T21:41:40.412Z,6.97
2023-02-15T21:45:02.007Z,7.47
2023-02-15T21:48:07.003Z,8.25
2023-02-15T21:51:28.077Z,9.07
2023-02-15T21:54:31.621Z,7.32
2023-02-15T21:57:34.954Z,8.38
2023-02-15T22:00:38.336Z,9.75
2023-02-15T22:03:43.064Z,8.13
2023-02-15T22:06:46.525Z,7.68
2023-02-15T22:09:49.906Z,7.97
2023-02-15T22:12:54.035Z,6.95
2023-02-15T22:15:57.553Z,7.32
2023-02-15T22:19:02.585Z,7.30
2023-02-15T22:22:06.008Z,6.97
2023-02-15T22:25:11.614Z,7.05
2023-02-15T22:28:16.555Z,6.97
2023-02-15T22:31:21.498Z,6.30
2023-02-15T22:34:28.063Z,7.05
2023-02-15T22:37:31.524Z,7.13
2023-02-15T22:40:35.678Z,6.60
2023-02-15T22:43:40.743Z,8.02
2023-02-15T22:46:44.128Z,7.07
2023-02-15T22:49:48.904Z,6.20
2023-02-15T22:52:52.452Z,7.00
2023-02-15T22:55:57.085Z,6.05
2023-02-15T22:59:02.524Z,7.32
2023-02-15T23:02:07.486Z,6.20
2023-02-15T23:05:17.918Z,6.55
2023-02-15T23:08:21.369Z,6.68
2023-02-15T23:11:25.258Z,6.13
2023-02-15T23:14:30.002Z,6.55
2023-02-15T23:17:33.321Z,6.32
2023-02-15T23:20:38.045Z,6.25
2023-02-15T23:23:42.653Z,6.82
2023-02-15T23:26:46.886Z,6.20
2023-02-15T23:29:50.237Z,6.57
2023-02-15T23:32:54.496Z,6.38
2023-02-15T23:35:59.827Z,6.80
2023-02-15T23:39:26.631Z,5.75
2023-02-15T23:42:30.945Z,5.90
2023-02-15T23:45:38.285Z,6.03
2023-02-15T23:48:41.774Z,6.28
2023-02-15T23:51:47.717Z,6.35
2023-02-15T23:54:51.064Z,5.25
2023-02-15T23:57:55.203Z,5.13
